Time;durP1;ratioP1;P1;durP2;ratioP2;P2;SDS_P1;SDS_P2;PMS_P1;PMS_P2;Temp;Humidity;BMP_temperature;BMP_pressure;BME280_temperature;BME280_humidity;BME280_pressure;Samples;Min_cycle;Max_cycle;Signal;HPM_P1;HPM_P2
2021/12/23 00:02:11;;;;;;;5.25;3.55;;;;;;;-18.73;81.47;99929.00;6245910;23;20013;-75
2021/12/23 00:04:37;;;;;;;3.28;3.08;;;;;;;-18.71;81.51;99929.94;6247258;23;20016;-75
2021/12/23 00:07:04;;;;;;;4.70;3.65;;;;;;;-18.74;81.77;99932.25;6246143;23;20016;-75
2021/12/23 00:10:12;;;;;;;3.17;3.08;;;;;;;-18.81;81.80;99932.69;6196568;23;20027;-75
2021/12/23 00:12:19;;;;;;;3.78;2.85;;;;;;;-18.92;80.98;99923.69;6232880;23;20056;-75
2021/12/23 00:14:46;;;;;;;2.83;2.72;;;;;;;-18.96;81.01;99920.16;6247593;23;20039;-75
2021/12/23 00:17:25;;;;;;;4.50;4.30;;;;;;;-18.90;81.66;99919.66;6249153;23;20067;-75
2021/12/23 00:25:23;;;;;;;5.97;3.88;;;;;;;-18.61;81.79;99914.81;6178834;23;20016;-74
2021/12/23 00:27:49;;;;;;;11.48;5.70;;;;;;;-18.58;82.41;99904.22;6247623;23;20375;-74
2021/12/23 00:30:15;;;;;;;2.22;2.15;;;;;;;-18.50;82.50;99906.38;6247400;23;20023;-78
2021/12/23 00:32:41;;;;;;;2.25;2.20;;;;;;;-18.47;82.46;99900.69;6221585;23;20016;-77
2021/12/23 00:35:09;;;;;;;4.82;3.22;;;;;;;-18.42;81.28;99894.38;6228899;23;20040;-81
2021/12/23 00:37:39;;;;;;;2.30;2.17;;;;;;;-18.35;82.30;99894.78;6257809;23;20050;-80
2021/12/23 00:40:07;;;;;;;3.10;3.00;;;;;;;-18.33;81.43;99887.44;6253769;23;20027;-80
2021/12/23 00:42:34;;;;;;;4.15;3.72;;;;;;;-18.28;82.41;99891.03;6230675;23;20024;-80
2021/12/23 00:45:00;;;;;;;5.38;4.97;;;;;;;-18.31;82.24;99885.88;6259863;23;20036;-80
2021/12/23 00:47:26;;;;;;;6.47;5.38;;;;;;;-18.26;81.90;99884.53;6261722;23;20094;-80
2021/12/23 00:49:52;;;;;;;2.50;2.42;;;;;;;-18.22;81.47;99882.28;6234169;23;20538;-81
2021/12/23 00:52:25;;;;;;;9.77;5.22;;;;;;;-18.16;81.33;99882.66;6257531;23;20058;-79
2021/12/23 00:54:52;;;;;;;3.08;2.88;;;;;;;-18.15;81.68;99868.56;6251549;23;20040;-79
2021/12/23 00:57:23;;;;;;;8.02;5.18;;;;;;;-18.07;81.85;99890.66;6194810;23;20016;-79
2021/12/23 00:59:50;;;;;;;3.35;3.05;;;;;;;-18.10;81.57;99872.19;6246380;23;20047;-79
2021/12/23 01:02:17;;;;;;;3.75;3.58;;;;;;;-18.09;81.84;99867.28;6219357;23;20484;-79
2021/12/23 01:04:46;;;;;;;3.50;3.13;;;;;;;-18.03;81.92;99875.91;6247008;23;20020;-78
2021/12/23 01:07:12;;;;;;;6.82;4.60;;;;;;;-17.96;80.85;99890.41;6196104;23;20016;-79
2021/12/23 01:09:38;;;;;;;4.80;4.47;;;;;;;-17.93;81.34;99890.59;6248298;23;20286;-79
2021/12/23 01:12:05;;;;;;;4.05;3.85;;;;;;;-17.90;81.63;99895.75;6228991;23;20045;-78
2021/12/23 01:14:41;;;;;;;3.63;3.42;;;;;;;-17.88;81.68;99900.03;6229357;23;20043;-80
2021/12/23 01:19:49;;;;;;;3.08;2.90;;;;;;;-17.75;81.56;99894.13;6262496;23;20043;-80
2021/12/23 01:22:16;;;;;;;4.30;3.55;;;;;;;-17.69;81.52;99895.31;6209180;23;20020;-80
2021/12/23 01:24:42;;;;;;;7.88;6.68;;;;;;;-17.67;82.26;99877.97;6260313;23;20016;-79
2021/12/23 01:27:11;;;;;;;3.67;3.38;;;;;;;-17.61;82.20;99890.78;6255169;23;20023;-79
2021/12/23 01:29:37;;;;;;;2.95;2.75;;;;;;;-17.59;81.61;99894.19;6254096;23;20023;-78
2021/12/23 01:32:05;;;;;;;3.08;2.95;;;;;;;-17.55;82.75;99896.94;6230281;23;20533;-80
2021/12/23 01:34:33;;;;;;;4.75;4.35;;;;;;;-17.55;82.08;99896.09;6258283;23;20023;-81
2021/12/23 01:37:03;;;;;;;2.75;2.55;;;;;;;-17.59;81.93;99894.19;6206110;23;20016;-80
2021/12/23 01:39:29;;;;;;;5.63;3.58;;;;;;;-17.60;82.75;99903.31;6256946;23;20035;-79
2021/12/23 01:41:58;;;;;;;9.75;7.20;;;;;;;-17.64;81.63;99895.59;6230161;23;20016;-80
2021/12/23 01:44:24;;;;;;;4.85;4.35;;;;;;;-17.68;81.66;99901.16;6254199;23;20523;-79
2021/12/23 01:46:50;;;;;;;3.33;3.08;;;;;;;-17.71;82.16;99893.53;6253327;23;20066;-79
2021/12/23 01:49:19;;;;;;;3.50;2.97;;;;;;;-17.68;82.72;99893.69;6252844;23;20012;-78
2021/12/23 01:51:45;;;;;;;5.22;4.72;;;;;;;-17.68;82.43;99888.72;6252714;23;20166;-80
2021/12/23 01:54:11;;;;;;;4.22;3.92;;;;;;;-17.66;81.93;99887.16;6256292;23;20012;-79
2021/12/23 01:56:37;;;;;;;9.25;6.30;;;;;;;-17.61;82.61;99886.66;6257116;23;20115;-81
2021/12/23 01:59:03;;;;;;;12.75;5.95;;;;;;;-17.58;82.77;99880.97;6259979;23;20020;-79
2021/12/23 02:01:29;;;;;;;3.55;3.25;;;;;;;-17.58;82.12;99876.00;6259027;23;20016;-80
2021/12/23 02:03:55;;;;;;;5.10;4.70;;;;;;;-17.54;82.71;99873.72;6258333;23;20075;-81
2021/12/23 02:06:21;;;;;;;7.25;4.00;;;;;;;-17.48;82.23;99873.19;6231161;23;20012;-78
2021/12/23 02:08:47;;;;;;;5.38;4.35;;;;;;;-17.50;83.04;99873.91;6265443;23;20031;-79
2021/12/23 02:11:13;;;;;;;18.83;2.83;;;;;;;-17.43;82.51;99879.28;6244282;23;20011;-79
2021/12/23 02:13:39;;;;;;;8.43;6.32;;;;;;;-17.41;83.08;99875.25;6244998;23;20004;-79
2021/12/23 02:16:06;;;;;;;5.65;5.18;;;;;;;-17.38;82.86;99867.94;6270972;23;20015;-80
2021/12/23 02:18:32;;;;;;;6.78;3.30;;;;;;;-17.37;82.65;99862.16;6244945;23;20007;-81
2021/12/23 02:20:58;;;;;;;2.97;2.78;;;;;;;-17.22;82.40;99865.50;6270625;22;20004;-80
2021/12/23 02:23:25;;;;;;;5.05;4.75;;;;;;;-17.20;82.29;99871.41;6244834;23;20031;-78
2021/12/23 02:25:51;;;;;;;13.05;6.47;;;;;;;-17.14;83.10;99868.38;6269337;23;20020;-81
2021/12/23 02:28:18;;;;;;;5.03;4.72;;;;;;;-17.11;82.67;99868.59;6257921;23;20066;-80
2021/12/23 02:30:44;;;;;;;3.78;3.55;;;;;;;-17.04;82.82;99873.97;6234340;23;20027;-80
2021/12/23 02:33:11;;;;;;;6.90;5.63;;;;;;;-17.00;82.26;99863.38;6261528;23;20016;-81
2021/12/23 02:35:37;;;;;;;3.75;3.55;;;;;;;-16.94;82.20;99864.47;6236171;23;20026;-81
2021/12/23 02:38:03;;;;;;;4.60;4.30;;;;;;;-16.96;82.02;99858.53;6260970;23;20027;-79
2021/12/23 02:40:40;;;;;;;3.15;2.95;;;;;;;-16.88;82.65;99864.81;6233344;23;20027;-80
2021/12/23 02:43:26;;;;;;;8.77;5.65;;;;;;;-16.85;82.06;99864.97;6260795;23;20032;-81
2021/12/23 02:45:54;;;;;;;4.97;3.10;;;;;;;-16.81;81.95;99867.69;6234913;23;20022;-80
2021/12/23 02:48:32;;;;;;;8.13;4.15;;;;;;;-16.79;82.19;99868.66;6204593;23;20022;-78
2021/12/23 02:50:58;;;;;;;5.18;3.50;;;;;;;-16.72;82.30;99864.84;6221374;23;20020;-78
2021/12/23 02:53:24;;;;;;;5.97;2.35;;;;;;;-16.68;82.31;99864.19;6244646;23;20495;-78
2021/12/23 02:55:55;;;;;;;6.43;5.82;;;;;;;-16.62;82.53;99860.38;6245039;23;20103;-79
2021/12/23 02:58:22;;;;;;;4.65;4.25;;;;;;;-16.51;82.80;99863.41;6243927;23;20015;-77
2021/12/23 03:00:51;;;;;;;6.50;5.90;;;;;;;-16.46;83.23;99862.00;6247787;23;20071;-80
2021/12/23 03:03:17;;;;;;;4.20;2.60;;;;;;;-16.36;83.05;99866.69;6251010;23;20016;-80
2021/12/23 03:05:50;;;;;;;4.90;4.60;;;;;;;-16.31;82.98;99867.78;6252512;23;20083;-80
2021/12/23 03:08:23;;;;;;;3.35;3.00;;;;;;;-16.22;82.75;99867.38;6225775;23;20077;-81
2021/12/23 03:10:49;;;;;;;4.57;4.18;;;;;;;-16.17;82.95;99858.47;6253698;23;20039;-79
2021/12/23 03:13:16;;;;;;;1.90;1.90;;;;;;;-16.08;83.17;99859.78;6252382;23;20014;-80
2021/12/23 03:15:45;;;;;;;3.63;3.42;;;;;;;-16.02;82.86;99855.09;6255521;23;20020;-77
2021/12/23 03:18:11;;;;;;;5.05;4.30;;;;;;;-15.96;82.72;99852.91;6265108;23;19992;-81
2021/12/23 03:20:37;;;;;;;2.25;2.15;;;;;;;-15.80;83.22;99858.66;6239909;23;20016;-78
2021/12/23 03:23:03;;;;;;;4.05;3.65;;;;;;;-15.70;83.44;99845.81;6252360;23;20020;-81
2021/12/23 03:25:32;;;;;;;6.82;4.25;;;;;;;-15.57;83.09;99848.13;6230970;23;20027;-82
2021/12/23 03:27:58;;;;;;;8.07;4.97;;;;;;;-15.48;82.89;99841.06;6183092;23;20371;-81
2021/12/23 03:30:24;;;;;;;4.35;3.88;;;;;;;-15.45;82.65;99833.66;6257930;23;20012;-81
2021/12/23 03:32:50;;;;;;;4.35;3.97;;;;;;;-15.30;83.18;99839.34;6205790;23;20016;-81
2021/12/23 03:35:16;;;;;;;4.03;3.38;;;;;;;-15.27;82.54;99829.50;6226683;23;20016;-80
2021/12/23 03:37:43;;;;;;;4.13;3.72;;;;;;;-15.11;83.23;99831.03;6251438;23;20150;-79
2021/12/23 03:40:09;;;;;;;3.35;2.70;;;;;;;-14.93;82.62;99825.25;6202109;23;20024;-80
2021/12/23 03:42:36;;;;;;;2.63;2.53;;;;;;;-14.82;82.64;99817.34;6252620;23;20026;-80
2021/12/23 03:45:02;;;;;;;4.85;4.35;;;;;;;-14.78;82.68;99816.69;6223902;23;20022;-78
2021/12/23 03:47:29;;;;;;;2.38;2.17;;;;;;;-14.67;82.66;99820.53;6248374;23;20031;-80
2021/12/23 03:49:55;;;;;;;2.95;2.75;;;;;;;-14.54;82.49;99807.75;6220423;23;20020;-80
2021/12/23 03:52:21;;;;;;;5.13;2.80;;;;;;;-14.46;82.97;99812.28;6252483;23;20019;-82
2021/12/23 03:54:47;;;;;;;6.63;4.57;;;;;;;-14.35;82.49;99805.22;6239678;23;20016;-82
2021/12/23 03:57:13;;;;;;;6.18;4.93;;;;;;;-14.29;82.03;99802.94;6244001;23;20020;-83
2021/12/23 03:59:39;;;;;;;5.85;4.00;;;;;;;-14.24;82.72;99799.00;6245969;23;20016;-82
2021/12/23 04:02:05;;;;;;;8.43;4.20;;;;;;;-14.12;83.22;99814.53;6271120;22;20024;-82
2021/12/23 04:04:33;;;;;;;3.00;2.67;;;;;;;-14.03;83.04;99814.91;6271755;23;20016;-83
2021/12/23 04:06:59;;;;;;;5.45;2.92;;;;;;;-14.09;82.47;99774.53;6236363;22;20023;-76
2021/12/23 04:09:25;;;;;;;5.85;3.70;;;;;;;-14.03;82.08;99768.91;6189461;23;20065;-83
2021/12/23 04:11:51;;;;;;;3.60;3.30;;;;;;;-13.77;82.54;99799.25;6236867;23;20024;-81
2021/12/23 04:14:17;;;;;;;1.95;1.95;;;;;;;-13.66;82.82;99798.84;6233423;23;20028;-82
2021/12/23 04:16:43;;;;;;;3.53;3.17;;;;;;;-13.62;82.28;99793.16;6233253;23;20050;-80
2021/12/23 04:19:11;;;;;;;4.13;3.30;;;;;;;-13.59;82.15;99798.28;6265947;23;20076;-82
2021/12/23 04:21:38;;;;;;;3.95;3.65;;;;;;;-13.50;82.45;99786.09;6215036;23;20016;-82
2021/12/23 04:24:04;;;;;;;5.32;3.20;;;;;;;-13.40;81.75;99795.69;6261950;23;20012;-81
2021/12/23 04:26:33;;;;;;;3.58;3.28;;;;;;;-13.33;82.64;99797.66;6229854;23;20020;-81
2021/12/23 04:28:59;;;;;;;3.40;3.10;;;;;;;-13.31;82.06;99775.94;6264528;23;20011;-82
2021/12/23 04:31:25;;;;;;;3.17;2.97;;;;;;;-13.16;81.25;99789.09;6218101;23;20004;-82
2021/12/23 04:33:52;;;;;;;3.20;3.00;;;;;;;-13.15;82.00;99788.28;6244189;23;20023;-82
2021/12/23 04:36:18;;;;;;;2.70;2.60;;;;;;;-13.09;80.77;99787.69;6271352;22;20031;-81
2021/12/23 04:38:45;;;;;;;3.03;2.83;;;;;;;-13.07;80.85;99794.44;6247193;22;20008;-81
2021/12/23 04:41:11;;;;;;;3.15;2.95;;;;;;;-13.04;81.27;99787.00;6272957;22;20051;-83
2021/12/23 04:43:38;;;;;;;4.15;3.80;;;;;;;-13.00;80.91;99798.88;6271871;23;20016;-82
2021/12/23 04:46:04;;;;;;;2.90;2.58;;;;;;;-12.95;80.92;99797.38;6243966;23;20024;-80
2021/12/23 04:48:30;;;;;;;3.17;3.00;;;;;;;-12.96;80.30;99793.19;6269601;23;20131;-82
2021/12/23 04:50:56;;;;;;;2.45;2.35;;;;;;;-12.97;80.95;99791.47;6269396;23;20020;-82
2021/12/23 04:53:22;;;;;;;2.50;2.30;;;;;;;-12.83;80.70;99807.03;6218905;23;20042;-78
2021/12/23 04:55:49;;;;;;;3.90;3.33;;;;;;;-12.79;80.95;99799.66;6270022;23;20040;-81
2021/12/23 04:58:15;;;;;;;4.00;3.05;;;;;;;-12.77;80.23;99798.06;6243640;23;20023;-82
2021/12/23 05:00:42;;;;;;;3.47;3.22;;;;;;;-12.73;80.10;99807.41;6220082;23;20020;-83
2021/12/23 05:03:11;;;;;;;3.25;2.95;;;;;;;-12.64;80.08;99803.53;6245326;23;20060;-82
2021/12/23 05:05:37;;;;;;;3.03;2.90;;;;;;;-12.63;80.76;99807.75;6244950;23;20024;-83
2021/12/23 05:08:03;;;;;;;2.42;2.33;;;;;;;-12.62;81.69;99806.94;6271374;23;20028;-80
2021/12/23 05:10:32;;;;;;;2.35;2.25;;;;;;;-12.71;80.85;99789.88;6271455;23;20004;-82
2021/12/23 05:12:59;;;;;;;3.47;3.17;;;;;;;-12.55;80.90;99813.91;6245608;23;20012;-81
2021/12/23 05:15:25;;;;;;;3.28;3.05;;;;;;;-12.54;81.37;99816.47;6272317;23;20004;-81
2021/12/23 05:17:51;;;;;;;2.50;2.30;;;;;;;-12.47;81.61;99822.59;6242199;23;19996;-81
2021/12/23 05:20:18;;;;;;;3.70;3.40;;;;;;;-12.43;81.24;99816.88;6219944;23;20043;-80
2021/12/23 05:22:44;;;;;;;4.60;3.78;;;;;;;-12.31;82.14;99822.31;6272964;22;20011;-81
2021/12/23 05:25:10;;;;;;;4.68;4.28;;;;;;;-12.25;81.95;99825.03;6272187;23;20020;-82
2021/12/23 05:30:12;;;;;;;3.65;3.38;;;;;;;-12.22;82.29;99822.63;6180172;23;20078;-82
2021/12/23 05:32:39;;;;;;;5.05;4.57;;;;;;;-12.12;81.84;99833.84;6179747;23;20017;-82
2021/12/23 05:35:05;;;;;;;3.95;3.65;;;;;;;-12.05;82.14;99830.75;6178659;23;20068;-82
2021/12/23 05:37:31;;;;;;;5.93;4.13;;;;;;;-12.01;81.33;99832.56;6152916;23;20017;-81
2021/12/23 05:39:58;;;;;;;3.03;2.83;;;;;;;-12.02;81.54;99834.22;6131541;23;20083;-77
2021/12/23 05:42:24;;;;;;;6.68;2.97;;;;;;;-11.97;81.57;99834.34;6130215;23;20021;-78
2021/12/23 05:44:50;;;;;;;2.92;2.72;;;;;;;-11.98;80.69;99830.16;6185482;23;20123;-80
2021/12/23 05:47:16;;;;;;;3.22;3.03;;;;;;;-11.94;80.68;99832.81;6165532;23;20028;-80
2021/12/23 05:49:42;;;;;;;4.35;3.92;;;;;;;-11.82;80.51;99843.31;6163389;23;20106;-79
2021/12/23 05:52:08;;;;;;;6.40;5.80;;;;;;;-11.80;80.47;99834.13;6194147;23;20040;-81
2021/12/23 05:54:34;;;;;;;4.45;4.15;;;;;;;-11.67;80.67;99853.81;6196414;23;20021;-78
2021/12/23 05:57:01;;;;;;;3.38;3.03;;;;;;;-11.61;79.43;99842.25;6192433;23;20140;-79
2021/12/23 05:59:32;;;;;;;4.85;3.38;;;;;;;-11.55;79.44;99843.31;6185290;23;20021;-80
2021/12/23 06:01:59;;;;;;;2.83;2.72;;;;;;;-11.55;78.92;99842.47;6162903;23;20021;-79
2021/12/23 06:04:26;;;;;;;3.95;3.60;;;;;;;-11.54;79.59;99834.94;6162648;23;20017;-80
2021/12/23 06:06:52;;;;;;;4.25;3.95;;;;;;;-11.44;79.03;99838.59;6115524;23;20020;-81
2021/12/23 06:09:18;;;;;;;4.47;4.18;;;;;;;-11.43;78.95;99823.56;6159035;23;20087;-78
2021/12/23 06:11:44;;;;;;;6.63;4.32;;;;;;;-11.38;78.42;99833.75;6164353;23;20056;-82
2021/12/23 06:14:11;;;;;;;2.75;2.55;;;;;;;-11.40;78.70;99828.69;6191205;23;20028;-80
2021/12/23 06:16:37;;;;;;;3.22;3.03;;;;;;;-11.37;79.07;99822.88;6112918;23;20096;-79
2021/12/23 06:19:03;;;;;;;3.20;3.00;;;;;;;-11.31;78.41;99825.59;6192032;23;20028;-77
2021/12/23 06:21:31;;;;;;;3.40;2.83;;;;;;;-11.22;77.65;99834.28;6189265;23;20021;-81
2021/12/23 06:23:59;;;;;;;8.27;5.45;;;;;;;-11.14;77.57;99821.94;6196761;23;20027;-77
2021/12/23 06:26:25;;;;;;;3.50;3.20;;;;;;;-11.07;77.50;99823.84;6232197;23;20583;-78
2021/12/23 06:28:51;;;;;;;4.97;4.30;;;;;;;-10.98;77.72;99824.09;6205452;23;20021;-81
2021/12/23 06:31:18;;;;;;;4.25;3.90;;;;;;;-10.89;77.19;99824.38;6134205;23;20024;-79
2021/12/23 06:33:44;;;;;;;7.00;3.35;;;;;;;-10.91;77.73;99810.88;6208312;23;20024;-80
2021/12/23 06:36:13;;;;;;;7.28;4.05;;;;;;;-10.84;77.54;99830.41;6135768;23;20036;-79
2021/12/23 06:38:42;;;;;;;4.70;4.00;;;;;;;-10.82;76.97;99827.94;6230355;23;20039;-80
2021/12/23 06:41:08;;;;;;;4.35;3.95;;;;;;;-10.80;76.25;99809.53;6174640;23;20108;-80
2021/12/23 06:43:34;;;;;;;6.43;3.38;;;;;;;-10.71;76.09;99824.06;6176336;23;20043;-79
2021/12/23 06:46:02;;;;;;;2.95;2.75;;;;;;;-10.69;75.81;99830.00;6199986;23;20026;-80
2021/12/23 06:48:30;;;;;;;6.75;4.53;;;;;;;-10.61;76.02;99824.38;6218874;23;20020;-80
2021/12/23 06:50:56;;;;;;;8.15;4.72;;;;;;;-10.60;75.89;99813.47;6188407;23;20130;-80
2021/12/23 06:53:23;;;;;;;3.92;3.63;;;;;;;-10.52;75.96;99820.38;6193026;23;20016;-77
2021/12/23 06:55:52;;;;;;;2.53;2.40;;;;;;;-10.50;75.83;99818.78;6164563;23;20467;-79
2021/12/23 06:58:18;;;;;;;4.65;4.25;;;;;;;-10.50;75.82;99818.78;6165883;23;20028;-80
2021/12/23 07:00:45;;;;;;;11.05;6.22;;;;;;;-10.43;75.47;99815.59;6189461;23;20405;-78
2021/12/23 07:03:12;;;;;;;2.65;2.50;;;;;;;-10.44;75.76;99816.44;6188038;23;20519;-80
2021/12/23 07:05:38;;;;;;;5.10;4.60;;;;;;;-10.40;76.48;99825.78;6215100;23;20055;-80
2021/12/23 07:08:13;;;;;;;5.85;5.32;;;;;;;-10.44;75.91;99822.34;6216952;23;20023;-81
2021/12/23 07:10:40;;;;;;;2.45;2.28;;;;;;;-10.38;76.05;99824.16;6189881;23;20103;-79
2021/12/23 07:13:06;;;;;;;3.38;3.13;;;;;;;-10.37;75.21;99825.88;6141933;23;20122;-80
2021/12/23 07:15:33;;;;;;;5.43;4.95;;;;;;;-10.45;74.94;99820.59;6188366;23;20020;-79
2021/12/23 07:18:00;;;;;;;3.45;3.22;;;;;;;-10.46;75.86;99807.94;6187353;23;20024;-79
2021/12/23 07:20:27;;;;;;;3.45;2.95;;;;;;;-10.40;75.09;99815.72;6214619;23;20020;-80
2021/12/23 07:22:53;;;;;;;3.30;3.10;;;;;;;-10.34;75.23;99814.22;6189865;23;20020;-79
2021/12/23 07:25:21;;;;;;;4.13;3.72;;;;;;;-10.25;74.85;99834.63;6163678;23;20064;-81
2021/12/23 07:27:47;;;;;;;2.20;2.10;;;;;;;-10.19;74.87;99828.88;6186935;23;20523;-79
2021/12/23 07:30:15;;;;;;;4.47;3.45;;;;;;;-10.11;74.32;99834.97;6164106;23;20021;-79
2021/12/23 07:32:42;;;;;;;4.60;4.22;;;;;;;-10.18;74.55;99828.09;6213267;23;20043;-81
2021/12/23 07:35:09;;;;;;;3.72;3.53;;;;;;;-10.17;74.42;99830.63;6166294;23;20074;-80
2021/12/23 07:37:35;;;;;;;5.97;4.70;;;;;;;-10.26;74.63;99816.91;6169866;23;20546;-82
2021/12/23 07:40:03;;;;;;;4.57;3.00;;;;;;;-10.16;74.20;99831.50;6232953;23;20080;-82
2021/12/23 07:42:31;;;;;;;3.67;3.47;;;;;;;-10.27;74.29;99815.19;6232697;23;20070;-80
2021/12/23 07:45:01;;;;;;;5.25;4.60;;;;;;;-10.21;74.14;99822.94;6102594;23;20044;-81
2021/12/23 07:47:29;;;;;;;5.43;4.93;;;;;;;-10.12;74.30;99825.69;6145888;23;20077;-82
2021/12/23 07:49:56;;;;;;;5.15;4.55;;;;;;;-10.11;74.12;99819.84;6226438;23;20025;-81
2021/12/23 07:52:22;;;;;;;4.03;3.70;;;;;;;-10.01;73.47;99821.75;6232853;23;20038;-83
2021/12/23 07:54:48;;;;;;;4.95;4.55;;;;;;;-10.00;73.96;99823.47;6236251;23;19996;-81
2021/12/23 07:57:16;;;;;;;3.65;3.45;;;;;;;-9.81;73.15;99815.56;6236110;23;20023;-82
2021/12/23 07:59:42;;;;;;;5.22;4.82;;;;;;;-9.98;73.06;99803.34;6229355;23;20024;-82
2021/12/23 08:02:08;;;;;;;4.30;3.90;;;;;;;-9.81;72.86;99805.44;6156016;23;20064;-80
2021/12/23 08:04:35;;;;;;;4.45;3.72;;;;;;;-9.83;72.52;99809.63;6200925;23;20055;-79
2021/12/23 08:07:03;;;;;;;5.35;4.20;;;;;;;-9.88;72.25;99787.63;6183025;23;20025;-81
2021/12/23 08:09:31;;;;;;;3.75;2.95;;;;;;;-9.83;72.39;99791.94;6180009;23;20070;-81
2021/12/23 08:11:59;;;;;;;2.85;2.67;;;;;;;-9.77;71.62;99804.72;6171333;23;20078;-81
2021/12/23 08:14:26;;;;;;;4.88;4.47;;;;;;;-9.75;72.02;99799.72;6193597;23;20044;-80
2021/12/23 08:16:52;;;;;;;3.63;3.25;;;;;;;-9.55;71.70;99790.94;6208301;23;20020;-80
2021/12/23 08:19:19;;;;;;;4.63;3.50;;;;;;;-9.68;71.34;99791.44;6184818;23;20020;-80
2021/12/23 08:21:45;;;;;;;8.13;4.25;;;;;;;-9.71;71.33;99782.13;6201698;23;20020;-81
2021/12/23 08:24:14;;;;;;;4.43;3.38;;;;;;;-9.73;71.62;99788.84;6198380;23;20068;-81
2021/12/23 08:26:44;;;;;;;3.75;3.45;;;;;;;-9.56;71.33;99779.13;6176140;23;20115;-80
2021/12/23 08:29:10;;;;;;;4.05;3.67;;;;;;;-9.70;71.44;99788.91;6235628;23;20051;-81
2021/12/23 08:31:41;;;;;;;3.72;3.42;;;;;;;-9.79;71.76;99790.34;6238916;23;20024;-81
2021/12/23 08:34:10;;;;;;;4.10;3.80;;;;;;;-9.74;71.42;99789.66;6215417;23;20012;-81
2021/12/23 08:36:38;;;;;;;4.90;4.45;;;;;;;-9.60;71.35;99780.75;6213719;23;20086;-82
2021/12/23 08:39:04;;;;;;;3.75;3.53;;;;;;;-9.59;70.72;99777.41;6232636;23;20044;-78
2021/12/23 08:41:31;;;;;;;4.30;3.95;;;;;;;-9.60;70.55;99780.75;6210880;23;20024;-75
2021/12/23 08:44:02;;;;;;;4.00;3.60;;;;;;;-9.43;69.85;99772.69;6215923;23;20003;-85
2021/12/23 18:31:24;;;;;;;4.50;2.13;;;;;;;-11.85;80.67;99605.84;6236027;23;20023;-81
2021/12/23 18:33:51;;;;;;;9.77;7.97;;;;;;;-11.82;80.98;99618.50;6260393;23;20020;-81
2021/12/23 18:36:23;;;;;;;3.63;3.42;;;;;;;-11.87;80.84;99613.34;6207432;23;20046;-82
2021/12/23 18:38:52;;;;;;;4.32;3.92;;;;;;;-11.87;80.29;99617.50;6209425;23;20468;-81
2021/12/23 18:41:22;;;;;;;12.38;10.25;;;;;;;-11.88;80.29;99611.66;6207783;23;20074;-80
2021/12/23 18:43:49;;;;;;;5.93;5.32;;;;;;;-12.03;80.57;99603.63;6236854;23;20016;-81
2021/12/23 18:46:18;;;;;;;10.68;8.75;;;;;;;-11.95;80.06;99609.75;6240408;23;20428;-82
2021/12/23 18:48:49;;;;;;;5.95;5.35;;;;;;;-12.00;80.25;99613.78;6191369;23;20030;-81
2021/12/23 18:51:15;;;;;;;10.93;8.30;;;;;;;-12.07;80.81;99594.28;6213668;23;20046;-83
2021/12/23 18:53:41;;;;;;;8.63;7.25;;;;;;;-12.05;80.79;99587.66;6188545;23;20021;-82
2021/12/23 18:56:09;;;;;;;7.65;6.60;;;;;;;-12.13;80.87;99578.16;6235356;23;20012;-80
2021/12/23 18:58:39;;;;;;;14.13;10.20;;;;;;;-12.04;81.58;99576.75;6180104;23;20046;-79
2021/12/23 19:01:12;;;;;;;10.85;9.70;;;;;;;-12.10;80.87;99569.03;6231180;23;20026;-82
2021/12/23 19:06:18;;;;;;;6.60;5.63;;;;;;;-12.05;81.28;99575.06;6230548;23;20020;-81
2021/12/23 19:08:49;;;;;;;9.63;7.95;;;;;;;-12.07;80.53;99563.28;6208999;23;20020;-82
2021/12/23 19:11:17;;;;;;;5.72;5.22;;;;;;;-12.09;81.37;99548.13;6164912;23;20060;-82
2021/12/23 19:13:44;;;;;;;7.95;6.43;;;;;;;-11.95;80.29;99563.63;6239192;23;20026;-81
2021/12/23 19:16:12;;;;;;;5.93;5.32;;;;;;;-11.96;80.52;99582.03;6213992;23;20020;-81
2021/12/23 19:18:43;;;;;;;6.53;5.88;;;;;;;-12.00;80.31;99550.03;6190615;23;20031;-82
2021/12/23 19:21:09;;;;;;;8.15;7.35;;;;;;;-12.03;81.39;99534.88;6241207;23;20026;-81
2021/12/23 19:23:38;;;;;;;8.70;7.90;;;;;;;-12.02;80.97;99560.06;6188971;23;20017;-83
2021/12/23 19:26:04;;;;;;;8.13;5.45;;;;;;;-12.09;81.13;99555.66;6270977;22;20035;-81
2021/12/23 19:28:31;;;;;;;7.30;4.50;;;;;;;-12.04;81.66;99570.91;6270522;22;20039;-80
2021/12/23 19:30:58;;;;;;;3.63;3.30;;;;;;;-12.09;81.61;99570.75;6244615;23;20072;-81
2021/12/23 19:33:26;;;;;;;6.07;5.60;;;;;;;-12.06;81.88;99565.81;6241356;22;20004;-82
2021/12/23 19:35:52;;;;;;;4.60;4.30;;;;;;;-12.04;81.46;99568.38;6240044;22;20020;-80
2021/12/23 19:38:22;;;;;;;7.78;6.88;;;;;;;-11.97;81.53;99558.53;6213213;23;20032;-81
2021/12/23 19:40:51;;;;;;;5.47;5.00;;;;;;;-11.94;81.46;99560.31;6213794;23;20011;-80
2021/12/23 19:43:18;;;;;;;4.80;4.40;;;;;;;-11.99;81.73;99567.69;6211006;23;20025;-82
2021/12/23 19:45:46;;;;;;;5.35;4.82;;;;;;;-11.89;82.04;99566.31;6208088;23;20028;-83
2021/12/23 19:48:16;;;;;;;4.85;4.40;;;;;;;-11.82;80.71;99566.53;6235309;23;20052;-82
2021/12/23 19:50:44;;;;;;;7.10;6.22;;;;;;;-11.87;80.59;99562.16;6203479;23;20016;-80
2021/12/23 19:53:11;;;;;;;7.20;6.50;;;;;;;-11.91;81.38;99561.22;6171447;23;20040;-80
2021/12/23 19:55:37;;;;;;;4.40;4.03;;;;;;;-11.95;81.00;99566.13;6168553;23;20020;-81
2021/12/23 19:58:04;;;;;;;3.33;3.13;;;;;;;-11.94;80.73;99558.63;6137525;23;20024;-80
2021/12/23 20:00:32;;;;;;;4.10;3.08;;;;;;;-11.93;81.49;99569.53;6190726;23;20020;-80
2021/12/23 20:02:59;;;;;;;3.60;3.40;;;;;;;-11.96;80.86;99566.94;6163465;23;20016;-80
2021/12/23 20:05:26;;;;;;;6.93;6.35;;;;;;;-11.90;82.03;99552.88;6213771;23;20021;-80
2021/12/23 20:07:53;;;;;;;4.18;3.60;;;;;;;-11.87;81.46;99563.03;6164261;23;20080;-80
2021/12/23 20:10:21;;;;;;;5.88;5.32;;;;;;;-11.80;81.56;99549.81;6187950;23;20048;-80
2021/12/23 20:12:54;;;;;;;4.30;3.03;;;;;;;-11.79;80.50;99556.56;6139803;23;20025;-79
2021/12/23 20:15:21;;;;;;;5.80;5.25;;;;;;;-11.75;80.98;99553.34;6188629;23;20048;-80
2021/12/23 20:17:47;;;;;;;6.93;6.22;;;;;;;-12.06;81.14;99500.44;6189455;23;20048;-80
2021/12/23 20:20:15;;;;;;;6.60;4.10;;;;;;;-11.84;80.59;99553.03;6163106;23;20027;-79
2021/12/23 20:22:41;;;;;;;5.47;4.63;;;;;;;-11.81;80.66;99537.22;6169454;23;20099;-80
2021/12/23 20:25:08;;;;;;;3.30;3.10;;;;;;;-11.78;80.72;99543.16;6118089;23;20046;-79
2021/12/23 20:27:37;;;;;;;5.85;5.03;;;;;;;-11.79;80.48;99536.44;6171978;23;20016;-80
2021/12/23 20:30:06;;;;;;;4.78;4.47;;;;;;;-11.79;80.23;99516.31;6197903;23;20018;-80
2021/12/23 20:32:32;;;;;;;6.95;6.28;;;;;;;-11.68;80.05;99532.50;6168935;23;20020;-81
2021/12/23 20:34:59;;;;;;;3.88;3.58;;;;;;;-11.74;80.60;99527.34;6223512;23;20440;-80
2021/12/23 20:37:25;;;;;;;3.38;3.05;;;;;;;-11.73;80.15;99515.63;6249023;23;20046;-79
2021/12/23 20:39:51;;;;;;;3.83;3.53;;;;;;;-11.64;79.59;99526.75;6217833;23;20030;-80
2021/12/23 20:42:17;;;;;;;4.70;4.30;;;;;;;-11.82;80.27;99510.34;6249220;23;20099;-82
2021/12/23 20:44:47;;;;;;;4.28;3.88;;;;;;;-11.59;79.63;99528.53;6222137;23;20016;-81
2021/12/23 20:47:13;;;;;;;6.15;5.63;;;;;;;-11.81;79.95;99507.84;6219612;23;20039;-80
2021/12/23 20:49:39;;;;;;;4.57;4.18;;;;;;;-11.68;79.83;99514.06;6242697;23;20016;-78
2021/12/23 20:52:07;;;;;;;2.92;2.83;;;;;;;-11.67;79.85;99511.56;6246785;23;20028;-79
2021/12/23 20:54:43;;;;;;;3.33;3.05;;;;;;;-11.72;80.19;99505.59;6255687;23;20047;-79
2021/12/23 20:57:10;;;;;;;4.85;4.40;;;;;;;-11.72;79.51;99498.06;6207143;23;20024;-78
2021/12/23 20:59:40;;;;;;;3.80;3.50;;;;;;;-11.72;79.45;99493.03;6253927;23;20019;-78
2021/12/23 21:02:07;;;;;;;3.50;3.22;;;;;;;-11.64;79.58;99495.69;6253811;23;20092;-77
2021/12/23 21:04:33;;;;;;;4.13;3.80;;;;;;;-11.74;79.14;99477.00;6231664;23;20024;-78
2021/12/23 21:06:59;;;;;;;8.07;3.83;;;;;;;-11.73;79.59;99471.19;6256836;23;20027;-77
2021/12/23 21:09:25;;;;;;;4.07;3.67;;;;;;;-11.66;79.76;99473.00;6258438;23;20098;-77
2021/12/23 21:11:52;;;;;;;10.00;5.18;;;;;;;-11.61;79.22;99479.84;6256840;23;20660;-76
2021/12/23 21:14:24;;;;;;;4.07;3.78;;;;;;;-11.64;79.54;99475.56;6257784;23;20020;-77
2021/12/23 21:16:51;;;;;;;7.30;6.65;;;;;;;-11.68;79.82;99479.66;6258473;23;20071;-77
2021/12/23 21:19:17;;;;;;;4.68;4.28;;;;;;;-11.64;79.49;99485.63;6257381;23;20051;-76
2021/12/23 21:21:44;;;;;;;6.25;5.20;;;;;;;-11.76;79.21;99488.72;6256229;23;20031;-77
2021/12/23 21:24:10;;;;;;;5.50;5.00;;;;;;;-11.78;79.47;99482.75;6252287;23;20020;-77